Aviation Digital Data Service (ADDS)

Output produced by METARs form (1508 UTC 19 December 2014)
found at http://aviationweather.gov/adds/metars/
 
KGNV 191120Z 1912/2012 00000KT P6SM FEW100 BKN200 
     FM191500 06004KT P6SM FEW050 SCT100 BKN200 
     FM192300 00000KT P6SM BKN100 BKN200